sensor_id;sensor_type;location;lat;lon;timestamp;pressure;altitude;pressure_sealevel;temperature;humidity
42647;BME280;31319;53.678;-6.254;2023-02-26T00:01:11;102627.31;;;12.85;57.29
42647;BME280;31319;53.678;-6.254;2023-02-26T00:03:36;102631.75;;;12.70;58.70
42647;BME280;31319;53.678;-6.254;2023-02-26T00:06:02;102619.09;;;12.80;57.60
42647;BME280;31319;53.678;-6.254;2023-02-26T00:08:28;102622.88;;;12.89;56.70
42647;BME280;31319;53.678;-6.254;2023-02-26T00:10:56;102619.34;;;12.83;57.36
42647;BME280;31319;53.678;-6.254;2023-02-26T00:13:22;102623.59;;;12.55;61.11
42647;BME280;31319;53.678;-6.254;2023-02-26T00:15:51;102624.41;;;12.56;60.33
42647;BME280;31319;53.678;-6.254;2023-02-26T00:18:21;102623.38;;;12.96;58.89
42647;BME280;31319;53.678;-6.254;2023-02-26T00:20:46;102635.69;;;13.03;58.19
42647;BME280;31319;53.678;-6.254;2023-02-26T00:23:12;102650.41;;;12.68;59.75
42647;BME280;31319;53.678;-6.254;2023-02-26T00:25:43;102639.66;;;12.82;60.26
42647;BME280;31319;53.678;-6.254;2023-02-26T00:28:09;102645.09;;;12.92;60.86
42647;BME280;31319;53.678;-6.254;2023-02-26T00:30:35;102657.50;;;12.85;63.24
42647;BME280;31319;53.678;-6.254;2023-02-26T00:33:01;102656.69;;;12.79;65.05
42647;BME280;31319;53.678;-6.254;2023-02-26T00:35:27;102649.28;;;12.74;64.03
42647;BME280;31319;53.678;-6.254;2023-02-26T00:38:05;102652.09;;;12.59;65.19
42647;BME280;31319;53.678;-6.254;2023-02-26T00:40:45;102651.91;;;12.35;67.00
42647;BME280;31319;53.678;-6.254;2023-02-26T00:43:16;102642.47;;;12.62;64.02
42647;BME280;31319;53.678;-6.254;2023-02-26T00:51:29;102639.88;;;12.91;62.31
42647;BME280;31319;53.678;-6.254;2023-02-26T00:54:07;102635.78;;;12.88;64.87
42647;BME280;31319;53.678;-6.254;2023-02-26T00:56:34;102646.94;;;12.47;70.64
42647;BME280;31319;53.678;-6.254;2023-02-26T00:58:59;102635.84;;;12.78;70.12
42647;BME280;31319;53.678;-6.254;2023-02-26T01:01:25;102643.09;;;12.43;78.85
42647;BME280;31319;53.678;-6.254;2023-02-26T01:03:51;102644.69;;;12.60;76.74
42647;BME280;31319;53.678;-6.254;2023-02-26T01:06:19;102648.16;;;12.81;73.06
42647;BME280;31319;53.678;-6.254;2023-02-26T01:09:05;102649.28;;;12.69;74.33
42647;BME280;31319;53.678;-6.254;2023-02-26T01:11:35;102646.66;;;12.49;74.61
42647;BME280;31319;53.678;-6.254;2023-02-26T01:14:02;102647.28;;;12.90;71.38
42647;BME280;31319;53.678;-6.254;2023-02-26T01:16:33;102648.53;;;12.64;72.02
42647;BME280;31319;53.678;-6.254;2023-02-26T01:19:16;102641.41;;;12.53;68.93
42647;BME280;31319;53.678;-6.254;2023-02-26T01:22:03;102645.00;;;12.48;63.60
42647;BME280;31319;53.678;-6.254;2023-02-26T01:24:33;102643.19;;;12.13;67.01
42647;BME280;31319;53.678;-6.254;2023-02-26T01:27:00;102645.59;;;12.35;67.97
42647;BME280;31319;53.678;-6.254;2023-02-26T01:29:26;102645.31;;;12.31;71.35
42647;BME280;31319;53.678;-6.254;2023-02-26T01:34:41;102646.13;;;12.47;64.96
42647;BME280;31319;53.678;-6.254;2023-02-26T01:37:33;102644.97;;;12.53;65.05
42647;BME280;31319;53.678;-6.254;2023-02-26T01:42:46;102648.09;;;12.26;73.94
42647;BME280;31319;53.678;-6.254;2023-02-26T01:45:28;102644.44;;;12.56;71.71
42647;BME280;31319;53.678;-6.254;2023-02-26T01:48:03;102644.19;;;12.47;75.08
42647;BME280;31319;53.678;-6.254;2023-02-26T01:50:31;102645.56;;;12.45;75.39
42647;BME280;31319;53.678;-6.254;2023-02-26T01:55:44;102654.78;;;12.69;73.95
42647;BME280;31319;53.678;-6.254;2023-02-26T01:58:11;102653.72;;;12.70;73.57
42647;BME280;31319;53.678;-6.254;2023-02-26T02:00:37;102664.38;;;12.72;75.04
42647;BME280;31319;53.678;-6.254;2023-02-26T02:03:03;102667.13;;;12.72;74.05
42647;BME280;31319;53.678;-6.254;2023-02-26T02:05:33;102665.25;;;12.62;74.03
42647;BME280;31319;53.678;-6.254;2023-02-26T02:08:00;102673.03;;;12.19;78.00
42647;BME280;31319;53.678;-6.254;2023-02-26T02:10:27;102670.31;;;12.25;82.34
42647;BME280;31319;53.678;-6.254;2023-02-26T02:27:01;102679.00;;;12.52;75.81
42647;BME280;31319;53.678;-6.254;2023-02-26T02:32:43;102686.56;;;12.86;72.61
42647;BME280;31319;53.678;-6.254;2023-02-26T02:35:21;102686.69;;;12.45;73.48
42647;BME280;31319;53.678;-6.254;2023-02-26T02:40:36;102695.16;;;12.59;71.52
42647;BME280;31319;53.678;-6.254;2023-02-26T02:43:09;102689.13;;;12.52;72.09
42647;BME280;31319;53.678;-6.254;2023-02-26T02:48:25;102700.09;;;12.57;67.20
42647;BME280;31319;53.678;-6.254;2023-02-26T02:51:18;102695.13;;;12.64;65.94
42647;BME280;31319;53.678;-6.254;2023-02-26T02:53:54;102704.19;;;12.64;66.33
42647;BME280;31319;53.678;-6.254;2023-02-26T02:56:28;102710.69;;;12.89;62.29
42647;BME280;31319;53.678;-6.254;2023-02-26T02:59:04;102699.63;;;13.04;57.39
42647;BME280;31319;53.678;-6.254;2023-02-26T03:01:36;102709.53;;;13.00;56.37
42647;BME280;31319;53.678;-6.254;2023-02-26T03:04:12;102707.41;;;12.76;59.86
42647;BME280;31319;53.678;-6.254;2023-02-26T03:06:40;102704.13;;;12.80;62.13
42647;BME280;31319;53.678;-6.254;2023-02-26T03:09:09;102708.44;;;12.96;60.76
42647;BME280;31319;53.678;-6.254;2023-02-26T03:11:35;102704.88;;;12.95;60.87
42647;BME280;31319;53.678;-6.254;2023-02-26T03:14:02;102699.53;;;12.65;61.83
42647;BME280;31319;53.678;-6.254;2023-02-26T03:19:17;102696.50;;;12.61;59.65
42647;BME280;31319;53.678;-6.254;2023-02-26T03:22:12;102701.69;;;12.78;55.70
42647;BME280;31319;53.678;-6.254;2023-02-26T03:24:55;102703.66;;;12.57;54.44
42647;BME280;31319;53.678;-6.254;2023-02-26T03:27:27;102711.38;;;12.40;56.49
42647;BME280;31319;53.678;-6.254;2023-02-26T03:30:00;102707.69;;;12.85;56.89
42647;BME280;31319;53.678;-6.254;2023-02-26T03:32:55;102703.22;;;12.99;57.43
42647;BME280;31319;53.678;-6.254;2023-02-26T03:35:32;102707.41;;;12.87;59.50
42647;BME280;31319;53.678;-6.254;2023-02-26T03:38:03;102712.31;;;12.90;59.67
42647;BME280;31319;53.678;-6.254;2023-02-26T03:40:42;102709.03;;;12.88;59.38
42647;BME280;31319;53.678;-6.254;2023-02-26T03:43:13;102704.72;;;12.71;59.87
42647;BME280;31319;53.678;-6.254;2023-02-26T03:45:42;102707.41;;;12.82;59.07
42647;BME280;31319;53.678;-6.254;2023-02-26T03:48:12;102694.72;;;13.01;57.83
42647;BME280;31319;53.678;-6.254;2023-02-26T03:50:48;102712.91;;;12.76;59.04
42647;BME280;31319;53.678;-6.254;2023-02-26T03:53:23;102713.19;;;12.80;60.28
42647;BME280;31319;53.678;-6.254;2023-02-26T03:55:55;102713.28;;;12.49;60.18
42647;BME280;31319;53.678;-6.254;2023-02-26T03:58:22;102713.72;;;12.82;59.46
42647;BME280;31319;53.678;-6.254;2023-02-26T04:00:53;102721.41;;;12.85;57.84
42647;BME280;31319;53.678;-6.254;2023-02-26T04:03:24;102724.16;;;12.80;57.64
42647;BME280;31319;53.678;-6.254;2023-02-26T04:05:51;102734.38;;;12.54;58.49
42647;BME280;31319;53.678;-6.254;2023-02-26T04:08:19;102738.09;;;12.94;56.84
42647;BME280;31319;53.678;-6.254;2023-02-26T04:10:56;102732.06;;;12.92;56.49
42647;BME280;31319;53.678;-6.254;2023-02-26T04:13:23;102730.75;;;12.74;55.85
42647;BME280;31319;53.678;-6.254;2023-02-26T04:15:48;102735.66;;;12.87;56.36
42647;BME280;31319;53.678;-6.254;2023-02-26T04:18:14;102739.31;;;12.62;57.42
42647;BME280;31319;53.678;-6.254;2023-02-26T04:20:40;102741.47;;;12.65;58.21
42647;BME280;31319;53.678;-6.254;2023-02-26T04:23:06;102740.88;;;12.84;56.79
42647;BME280;31319;53.678;-6.254;2023-02-26T04:25:31;102739.09;;;13.13;55.45
42647;BME280;31319;53.678;-6.254;2023-02-26T04:27:57;102744.94;;;13.01;55.38
42647;BME280;31319;53.678;-6.254;2023-02-26T04:30:22;102753.50;;;12.85;55.57
42647;BME280;31319;53.678;-6.254;2023-02-26T04:32:48;102754.50;;;13.09;54.60
42647;BME280;31319;53.678;-6.254;2023-02-26T04:35:14;102751.19;;;13.07;55.13
42647;BME280;31319;53.678;-6.254;2023-02-26T04:37:39;102748.41;;;13.22;54.03
42647;BME280;31319;53.678;-6.254;2023-02-26T04:40:05;102751.19;;;13.17;53.08
42647;BME280;31319;53.678;-6.254;2023-02-26T04:42:31;102757.78;;;13.06;53.09
42647;BME280;31319;53.678;-6.254;2023-02-26T04:44:57;102751.78;;;13.04;52.88
42647;BME280;31319;53.678;-6.254;2023-02-26T04:47:22;102756.97;;;13.05;53.49
42647;BME280;31319;53.678;-6.254;2023-02-26T04:49:48;102752.28;;;13.11;53.27
42647;BME280;31319;53.678;-6.254;2023-02-26T04:52:14;102758.47;;;12.72;53.80
42647;BME280;31319;53.678;-6.254;2023-02-26T04:54:39;102753.88;;;12.47;55.94
42647;BME280;31319;53.678;-6.254;2023-02-26T04:57:05;102753.59;;;12.49;56.71
42647;BME280;31319;53.678;-6.254;2023-02-26T04:59:31;102766.66;;;12.93;55.97
42647;BME280;31319;53.678;-6.254;2023-02-26T05:01:57;102762.22;;;12.97;55.31
42647;BME280;31319;53.678;-6.254;2023-02-26T05:04:22;102769.66;;;12.91;56.95
42647;BME280;31319;53.678;-6.254;2023-02-26T05:06:48;102768.34;;;12.73;58.40
42647;BME280;31319;53.678;-6.254;2023-02-26T05:09:14;102769.41;;;12.83;58.38
42647;BME280;31319;53.678;-6.254;2023-02-26T05:11:39;102772.19;;;12.72;57.59
42647;BME280;31319;53.678;-6.254;2023-02-26T05:14:05;102780.44;;;12.57;55.91
42647;BME280;31319;53.678;-6.254;2023-02-26T05:16:30;102775.47;;;12.74;54.86
42647;BME280;31319;53.678;-6.254;2023-02-26T05:18:56;102784.75;;;12.89;53.47
42647;BME280;31319;53.678;-6.254;2023-02-26T05:21:22;102771.56;;;13.01;51.69
42647;BME280;31319;53.678;-6.254;2023-02-26T05:23:47;102783.88;;;13.03;50.85
42647;BME280;31319;53.678;-6.254;2023-02-26T05:26:13;102793.22;;;13.08;50.69
42647;BME280;31319;53.678;-6.254;2023-02-26T05:28:39;102792.22;;;12.58;53.53
42647;BME280;31319;53.678;-6.254;2023-02-26T05:31:04;102793.59;;;12.70;53.60
42647;BME280;31319;53.678;-6.254;2023-02-26T05:33:31;102791.94;;;12.64;54.72
42647;BME280;31319;53.678;-6.254;2023-02-26T05:35:56;102790.88;;;12.55;55.47
42647;BME280;31319;53.678;-6.254;2023-02-26T05:38:22;102782.91;;;12.59;56.45
42647;BME280;31319;53.678;-6.254;2023-02-26T05:40:48;102795.78;;;12.68;57.24
42647;BME280;31319;53.678;-6.254;2023-02-26T05:43:14;102796.34;;;12.45;57.94
42647;BME280;31319;53.678;-6.254;2023-02-26T05:45:40;102797.16;;;12.71;57.06
42647;BME280;31319;53.678;-6.254;2023-02-26T05:48:05;102807.28;;;12.81;56.55
42647;BME280;31319;53.678;-6.254;2023-02-26T05:50:31;102817.19;;;12.56;56.85
42647;BME280;31319;53.678;-6.254;2023-02-26T05:52:57;102813.63;;;12.45;56.89
42647;BME280;31319;53.678;-6.254;2023-02-26T05:55:23;102807.81;;;12.88;55.24
42647;BME280;31319;53.678;-6.254;2023-02-26T05:57:49;102811.16;;;12.59;56.32
42647;BME280;31319;53.678;-6.254;2023-02-26T06:00:15;102814.16;;;12.58;56.39
42647;BME280;31319;53.678;-6.254;2023-02-26T06:02:41;102813.91;;;12.64;55.98
42647;BME280;31319;53.678;-6.254;2023-02-26T06:05:07;102817.72;;;12.73;55.16
42647;BME280;31319;53.678;-6.254;2023-02-26T06:07:33;102831.16;;;12.85;54.84
42647;BME280;31319;53.678;-6.254;2023-02-26T06:09:59;102828.41;;;12.75;55.81
42647;BME280;31319;53.678;-6.254;2023-02-26T06:12:25;102836.91;;;12.78;55.75
42647;BME280;31319;53.678;-6.254;2023-02-26T06:14:51;102825.41;;;12.61;56.26
42647;BME280;31319;53.678;-6.254;2023-02-26T06:17:16;102830.88;;;12.61;57.16
42647;BME280;31319;53.678;-6.254;2023-02-26T06:19:42;102825.44;;;12.56;58.40
42647;BME280;31319;53.678;-6.254;2023-02-26T06:22:09;102822.13;;;12.39;59.13
42647;BME280;31319;53.678;-6.254;2023-02-26T06:24:34;102826.78;;;12.13;60.38
42647;BME280;31319;53.678;-6.254;2023-02-26T06:27:00;102830.09;;;12.56;57.79
42647;BME280;31319;53.678;-6.254;2023-02-26T06:29:25;102835.28;;;12.57;58.16
42647;BME280;31319;53.678;-6.254;2023-02-26T06:31:51;102839.41;;;12.55;58.21
42647;BME280;31319;53.678;-6.254;2023-02-26T06:34:17;102839.69;;;12.48;58.58
42647;BME280;31319;53.678;-6.254;2023-02-26T06:36:43;102851.75;;;12.57;58.40
42647;BME280;31319;53.678;-6.254;2023-02-26T06:39:08;102852.84;;;12.26;58.85
42647;BME280;31319;53.678;-6.254;2023-02-26T06:41:34;102853.09;;;12.60;56.93
42647;BME280;31319;53.678;-6.254;2023-02-26T06:44:00;102851.75;;;12.47;58.69
42647;BME280;31319;53.678;-6.254;2023-02-26T06:46:25;102853.09;;;12.75;56.03
42647;BME280;31319;53.678;-6.254;2023-02-26T06:48:51;102852.53;;;12.88;56.01
42647;BME280;31319;53.678;-6.254;2023-02-26T06:51:16;102855.00;;;12.74;55.62
42647;BME280;31319;53.678;-6.254;2023-02-26T06:53:42;102857.47;;;12.81;53.76
42647;BME280;31319;53.678;-6.254;2023-02-26T06:56:08;102857.22;;;12.72;52.96
42647;BME280;31319;53.678;-6.254;2023-02-26T06:58:33;102861.91;;;12.57;55.49
42647;BME280;31319;53.678;-6.254;2023-02-26T07:00:59;102865.72;;;12.86;55.42
42647;BME280;31319;53.678;-6.254;2023-02-26T07:03:25;102862.97;;;12.30;58.08
42647;BME280;31319;53.678;-6.254;2023-02-26T07:05:50;102869.56;;;12.75;57.19
42647;BME280;31319;53.678;-6.254;2023-02-26T07:08:16;102878.59;;;12.81;56.93
42647;BME280;31319;53.678;-6.254;2023-02-26T07:10:43;102886.03;;;12.55;58.01
42647;BME280;31319;53.678;-6.254;2023-02-26T07:13:11;102888.22;;;12.53;57.80
42647;BME280;31319;53.678;-6.254;2023-02-26T07:15:37;102901.38;;;12.81;56.77
42647;BME280;31319;53.678;-6.254;2023-02-26T07:18:03;102897.00;;;12.70;58.33
42647;BME280;31319;53.678;-6.254;2023-02-26T07:20:28;102901.34;;;12.96;57.62
42647;BME280;31319;53.678;-6.254;2023-02-26T07:22:54;102899.72;;;12.49;59.29
42647;BME280;31319;53.678;-6.254;2023-02-26T07:25:20;102894.53;;;12.73;59.99
42647;BME280;31319;53.678;-6.254;2023-02-26T07:27:46;102909.34;;;12.72;62.08
42647;BME280;31319;53.678;-6.254;2023-02-26T07:30:12;102898.06;;;12.38;66.48
42647;BME280;31319;53.678;-6.254;2023-02-26T07:32:38;102918.09;;;12.54;63.81
42647;BME280;31319;53.678;-6.254;2023-02-26T07:35:04;102915.91;;;12.66;63.77
42647;BME280;31319;53.678;-6.254;2023-02-26T07:37:30;102924.69;;;12.73;62.37
42647;BME280;31319;53.678;-6.254;2023-02-26T07:39:55;102920.00;;;12.54;63.74
42647;BME280;31319;53.678;-6.254;2023-02-26T07:42:21;102924.13;;;12.51;65.92
42647;BME280;31319;53.678;-6.254;2023-02-26T07:44:46;102920.28;;;12.67;63.97
42647;BME280;31319;53.678;-6.254;2023-02-26T07:47:12;102923.28;;;12.30;65.13
42647;BME280;31319;53.678;-6.254;2023-02-26T07:49:38;102922.44;;;12.19;64.92
42647;BME280;31319;53.678;-6.254;2023-02-26T07:52:04;102930.97;;;12.38;62.49
42647;BME280;31319;53.678;-6.254;2023-02-26T07:54:33;102929.28;;;12.22;61.17
42647;BME280;31319;53.678;-6.254;2023-02-26T07:56:58;102936.78;;;12.62;60.62
42647;BME280;31319;53.678;-6.254;2023-02-26T07:59:24;102935.13;;;12.71;60.62
42647;BME280;31319;53.678;-6.254;2023-02-26T08:01:50;102945.81;;;12.73;59.01
42647;BME280;31319;53.678;-6.254;2023-02-26T08:04:15;102955.63;;;12.38;60.17
42647;BME280;31319;53.678;-6.254;2023-02-26T08:06:41;102951.84;;;12.75;60.20
42647;BME280;31319;53.678;-6.254;2023-02-26T08:09:06;102944.44;;;12.81;58.73
42647;BME280;31319;53.678;-6.254;2023-02-26T08:11:32;102938.13;;;12.95;59.17
42647;BME280;31319;53.678;-6.254;2023-02-26T08:14:01;102951.03;;;12.74;59.55
42647;BME280;31319;53.678;-6.254;2023-02-26T08:16:27;102956.50;;;12.74;59.66
42647;BME280;31319;53.678;-6.254;2023-02-26T08:18:53;102960.91;;;12.96;58.18
42647;BME280;31319;53.678;-6.254;2023-02-26T08:21:18;102980.94;;;12.81;58.73
42647;BME280;31319;53.678;-6.254;2023-02-26T08:23:44;102989.47;;;13.25;56.81
42647;BME280;31319;53.678;-6.254;2023-02-26T08:26:11;102990.53;;;13.09;55.46
42647;BME280;31319;53.678;-6.254;2023-02-26T08:28:38;102986.97;;;13.03;55.54
42647;BME280;31319;53.678;-6.254;2023-02-26T08:31:04;102987.25;;;12.82;56.03
42647;BME280;31319;53.678;-6.254;2023-02-26T08:33:31;102991.09;;;13.01;55.55
42647;BME280;31319;53.678;-6.254;2023-02-26T08:35:57;102992.19;;;12.90;56.14
42647;BME280;31319;53.678;-6.254;2023-02-26T08:38:24;102999.88;;;12.93;57.36
42647;BME280;31319;53.678;-6.254;2023-02-26T08:40:50;103004.81;;;13.06;56.93
42647;BME280;31319;53.678;-6.254;2023-02-26T08:43:18;103022.94;;;13.27;55.96
42647;BME280;31319;53.678;-6.254;2023-02-26T08:45:44;103024.56;;;13.44;55.80
42647;BME280;31319;53.678;-6.254;2023-02-26T08:48:10;103030.34;;;13.37;55.99
42647;BME280;31319;53.678;-6.254;2023-02-26T08:50:35;103028.16;;;13.54;56.29
42647;BME280;31319;53.678;-6.254;2023-02-26T08:53:01;103021.81;;;13.49;55.63
42647;BME280;31319;53.678;-6.254;2023-02-26T08:55:27;103018.53;;;13.37;56.71
42647;BME280;31319;53.678;-6.254;2023-02-26T08:57:52;103007.31;;;13.33;58.94
42647;BME280;31319;53.678;-6.254;2023-02-26T09:00:18;103001.00;;;13.32;57.73
42647;BME280;31319;53.678;-6.254;2023-02-26T09:02:45;103007.56;;;13.37;56.72
42647;BME280;31319;53.678;-6.254;2023-02-26T09:05:10;103023.47;;;13.50;56.07
42647;BME280;31319;53.678;-6.254;2023-02-26T09:07:37;103039.66;;;13.62;55.52
42647;BME280;31319;53.678;-6.254;2023-02-26T09:10:03;103041.63;;;13.41;55.19
42647;BME280;31319;53.678;-6.254;2023-02-26T09:12:29;103048.16;;;13.75;53.88
42647;BME280;31319;53.678;-6.254;2023-02-26T09:14:55;103050.38;;;13.63;53.69
42647;BME280;31319;53.678;-6.254;2023-02-26T09:17:24;103035.00;;;13.52;54.63
42647;BME280;31319;53.678;-6.254;2023-02-26T09:19:49;103031.19;;;13.27;56.51
42647;BME280;31319;53.678;-6.254;2023-02-26T09:22:15;103032.28;;;13.31;56.99
42647;BME280;31319;53.678;-6.254;2023-02-26T09:24:40;103033.91;;;13.22;55.92
42647;BME280;31319;53.678;-6.254;2023-02-26T09:27:06;103042.41;;;13.11;58.57
42647;BME280;31319;53.678;-6.254;2023-02-26T09:29:32;103063.84;;;13.29;58.41
42647;BME280;31319;53.678;-6.254;2023-02-26T09:31:58;103060.84;;;13.36;58.31
42647;BME280;31319;53.678;-6.254;2023-02-26T09:34:24;103067.69;;;13.43;58.42
42647;BME280;31319;53.678;-6.254;2023-02-26T09:36:49;103064.13;;;13.27;59.32
42647;BME280;31319;53.678;-6.254;2023-02-26T09:39:15;103066.06;;;13.27;60.36
42647;BME280;31319;53.678;-6.254;2023-02-26T09:41:45;103056.16;;;13.21;58.52
42647;BME280;31319;53.678;-6.254;2023-02-26T09:44:16;103053.66;;;13.19;58.28
42647;BME280;31319;53.678;-6.254;2023-02-26T09:49:58;103064.41;;;13.21;63.43
42647;BME280;31319;53.678;-6.254;2023-02-26T09:57:52;103087.75;;;13.39;66.68
42647;BME280;31319;53.678;-6.254;2023-02-26T10:00:35;103085.78;;;13.14;70.61
42647;BME280;31319;53.678;-6.254;2023-02-26T10:03:33;103083.63;;;13.21;75.28
42647;BME280;31319;53.678;-6.254;2023-02-26T10:06:31;103088.25;;;13.05;73.91
42647;BME280;31319;53.678;-6.254;2023-02-26T10:09:36;103100.88;;;13.01;72.34
42647;BME280;31319;53.678;-6.254;2023-02-26T10:12:19;103116.59;;;13.41;67.56
42647;BME280;31319;53.678;-6.254;2023-02-26T10:14:59;103114.38;;;13.64;68.22
42647;BME280;31319;53.678;-6.254;2023-02-26T10:20:38;103128.38;;;13.57;68.10
42647;BME280;31319;53.678;-6.254;2023-02-26T10:23:23;103130.03;;;13.43;72.84
42647;BME280;31319;53.678;-6.254;2023-02-26T10:26:12;103127.56;;;13.36;76.18
42647;BME280;31319;53.678;-6.254;2023-02-26T10:28:57;103131.13;;;13.42;76.50
42647;BME280;31319;53.678;-6.254;2023-02-26T10:31:30;103137.47;;;13.47;71.20
42647;BME280;31319;53.678;-6.254;2023-02-26T10:36:56;103137.19;;;13.64;66.27
42647;BME280;31319;53.678;-6.254;2023-02-26T10:39:39;103149.53;;;13.77;68.70
42647;BME280;31319;53.678;-6.254;2023-02-26T10:42:32;103140.34;;;14.27;65.18
42647;BME280;31319;53.678;-6.254;2023-02-26T10:45:23;103147.47;;;14.38;67.11
42647;BME280;31319;53.678;-6.254;2023-02-26T10:48:16;103140.06;;;14.39;67.04
42647;BME280;31319;53.678;-6.254;2023-02-26T10:50:52;103139.81;;;14.25;69.76
42647;BME280;31319;53.678;-6.254;2023-02-26T10:53:20;103147.00;;;14.11;73.22
42647;BME280;31319;53.678;-6.254;2023-02-26T10:55:51;103151.59;;;14.41;71.46
42647;BME280;31319;53.678;-6.254;2023-02-26T10:58:23;103144.72;;;14.38;67.72
42647;BME280;31319;53.678;-6.254;2023-02-26T11:00:51;103137.03;;;14.35;63.48
42647;BME280;31319;53.678;-6.254;2023-02-26T11:03:35;103139.53;;;14.27;67.22
42647;BME280;31319;53.678;-6.254;2023-02-26T11:06:03;103144.19;;;14.31;69.64
42647;BME280;31319;53.678;-6.254;2023-02-26T11:08:44;103138.38;;;14.43;69.13
42647;BME280;31319;53.678;-6.254;2023-02-26T11:11:34;103149.22;;;14.09;69.19
42647;BME280;31319;53.678;-6.254;2023-02-26T11:14:00;103164.00;;;14.38;65.44
42647;BME280;31319;53.678;-6.254;2023-02-26T11:16:26;103156.59;;;14.29;64.20
42647;BME280;31319;53.678;-6.254;2023-02-26T11:18:54;103157.09;;;14.41;61.78
42647;BME280;31319;53.678;-6.254;2023-02-26T11:21:28;103155.81;;;14.88;61.11
42647;BME280;31319;53.678;-6.254;2023-02-26T11:24:01;103152.91;;;14.69;63.09
42647;BME280;31319;53.678;-6.254;2023-02-26T11:26:37;103166.38;;;14.65;60.96
42647;BME280;31319;53.678;-6.254;2023-02-26T11:29:03;103158.97;;;14.61;62.11
42647;BME280;31319;53.678;-6.254;2023-02-26T11:31:30;103157.94;;;14.52;61.55
42647;BME280;31319;53.678;-6.254;2023-02-26T11:34:07;103160.13;;;14.44;62.58
42647;BME280;31319;53.678;-6.254;2023-02-26T11:36:38;103148.19;;;14.75;59.51
42647;BME280;31319;53.678;-6.254;2023-02-26T11:39:17;103160.88;;;14.65;61.11
42647;BME280;31319;53.678;-6.254;2023-02-26T11:41:45;103155.34;;;14.76;61.05
42647;BME280;31319;53.678;-6.254;2023-02-26T11:44:17;103164.44;;;14.71;60.28
42647;BME280;31319;53.678;-6.254;2023-02-26T11:46:50;103164.34;;;14.86;59.25
42647;BME280;31319;53.678;-6.254;2023-02-26T11:49:19;103158.94;;;14.71;59.69
42647;BME280;31319;53.678;-6.254;2023-02-26T11:51:47;103169.03;;;14.86;59.17
42647;BME280;31319;53.678;-6.254;2023-02-26T11:54:26;103167.59;;;14.98;59.03
42647;BME280;31319;53.678;-6.254;2023-02-26T11:57:00;103168.19;;;14.90;58.68
42647;BME280;31319;53.678;-6.254;2023-02-26T11:59:30;103162.34;;;15.02;58.05
42647;BME280;31319;53.678;-6.254;2023-02-26T12:02:01;103168.13;;;15.01;58.09
42647;BME280;31319;53.678;-6.254;2023-02-26T12:04:30;103159.84;;;15.06;57.33
42647;BME280;31319;53.678;-6.254;2023-02-26T12:06:56;103164.50;;;15.10;57.26
42647;BME280;31319;53.678;-6.254;2023-02-26T12:09:24;103157.94;;;15.40;57.68
42647;BME280;31319;53.678;-6.254;2023-02-26T12:12:15;103158.13;;;15.20;57.71
42647;BME280;31319;53.678;-6.254;2023-02-26T12:23:09;103161.00;;;14.99;63.18
42647;BME280;31319;53.678;-6.254;2023-02-26T12:43:56;103137.88;;;14.95;68.01
42647;BME280;31319;53.678;-6.254;2023-02-26T12:46:48;103141.81;;;14.84;69.28
42647;BME280;31319;53.678;-6.254;2023-02-26T12:49:43;103138.22;;;14.89;65.60
42647;BME280;31319;53.678;-6.254;2023-02-26T12:57:45;103142.59;;;15.34;58.52
42647;BME280;31319;53.678;-6.254;2023-02-26T13:08:24;103142.94;;;15.57;57.34
42647;BME280;31319;53.678;-6.254;2023-02-26T13:14:12;103153.81;;;15.77;52.85
42647;BME280;31319;53.678;-6.254;2023-02-26T13:16:50;103155.56;;;15.68;53.48
42647;BME280;31319;53.678;-6.254;2023-02-26T13:19:30;103163.25;;;15.71;52.42
42647;BME280;31319;53.678;-6.254;2023-02-26T13:21:59;103157.72;;;15.71;52.56
42647;BME280;31319;53.678;-6.254;2023-02-26T13:25:00;103160.38;;;15.13;53.24
42647;BME280;31319;53.678;-6.254;2023-02-26T13:27:33;103160.56;;;15.26;53.35
42647;BME280;31319;53.678;-6.254;2023-02-26T13:32:31;103156.38;;;15.34;52.66
42647;BME280;31319;53.678;-6.254;2023-02-26T13:35:02;103159.84;;;15.06;51.78
42647;BME280;31319;53.678;-6.254;2023-02-26T13:37:41;103149.44;;;14.97;52.55
42647;BME280;31319;53.678;-6.254;2023-02-26T13:45:50;103134.63;;;15.96;50.12
42647;BME280;31319;53.678;-6.254;2023-02-26T13:48:38;103141.41;;;15.79;50.95
42647;BME280;31319;53.678;-6.254;2023-02-26T13:51:23;103137.75;;;16.13;50.71
42647;BME280;31319;53.678;-6.254;2023-02-26T13:59:52;103141.22;;;16.24;48.08
42647;BME280;31319;53.678;-6.254;2023-02-26T14:04:58;103146.19;;;16.22;49.02
42647;BME280;31319;53.678;-6.254;2023-02-26T14:13:22;103148.91;;;16.27;48.53
42647;BME280;31319;53.678;-6.254;2023-02-26T14:15:53;103146.28;;;15.88;50.13
42647;BME280;31319;53.678;-6.254;2023-02-26T14:23:53;103155.91;;;16.19;49.56
42647;BME280;31319;53.678;-6.254;2023-02-26T14:26:22;103153.34;;;16.23;48.98
42647;BME280;31319;53.678;-6.254;2023-02-26T14:29:14;103164.72;;;15.92;48.25
42647;BME280;31319;53.678;-6.254;2023-02-26T14:34:27;103152.63;;;16.41;48.91
42647;BME280;31319;53.678;-6.254;2023-02-26T14:36:57;103154.00;;;16.62;47.96
42647;BME280;31319;53.678;-6.254;2023-02-26T14:39:32;103145.72;;;16.62;46.81
42647;BME280;31319;53.678;-6.254;2023-02-26T14:42:05;103157.34;;;16.59;47.11
42647;BME280;31319;53.678;-6.254;2023-02-26T14:44:40;103152.94;;;16.58;47.76
42647;BME280;31319;53.678;-6.254;2023-02-26T14:47:07;103153.41;;;17.08;47.41
42647;BME280;31319;53.678;-6.254;2023-02-26T14:49:39;103154.75;;;16.68;47.50
42647;BME280;31319;53.678;-6.254;2023-02-26T14:58:01;103160.88;;;17.08;46.39
42647;BME280;31319;53.678;-6.254;2023-02-26T15:00:54;103169.91;;;16.47;46.79
42647;BME280;31319;53.678;-6.254;2023-02-26T15:04:00;103166.31;;;16.46;47.49
42647;BME280;31319;53.678;-6.254;2023-02-26T15:09:35;103170.28;;;16.40;47.91
42647;BME280;31319;53.678;-6.254;2023-02-26T15:12:45;103167.16;;;16.23;47.71
42647;BME280;31319;53.678;-6.254;2023-02-26T15:15:35;103178.31;;;16.13;47.60